Vernicos Master — SVA2352 — position and weather

sailwx.info

Track history (hours):
 
Tides and Currents Weather Stations Pressure Air Temp Water Temp Dewpoint Dewpoint Depression Visibility Wind Speed Wind Dir Waves Ship Positions

Vernicos Master

Last reported at 2018-May-26 07:29 UTC. Time now 2018-May-26 07:53 UTC.
Position N 38°01' E 023°35'.

Length 28 m; draft 3.8 m.

Type: Tug. MMSI: 240917000.

Date/timePositionNaut miles runAvg speedWind from/ knotsBaromVisibWave heightAir tempDewpointWater temp
2018-May-26 07:29N 38°01' E 023°35'0 0.0
2018-May-26 07:01N 38°01' E 023°35'0 0.0
2018-May-26 06:30N 38°01' E 023°35'0 0.0
2018-May-26 05:30N 38°01' E 023°35'0 0.0
2018-May-26 05:00N 38°01' E 023°35'0 0.0
2018-May-26 04:31N 38°01' E 023°35'0 0.0
2018-May-26 04:01N 38°01' E 023°35'0 0.0
2018-May-26 03:23N 38°01' E 023°35'0 0.0
2018-May-26 03:00N 38°01' E 023°35'0 0.0
2018-May-26 02:29N 38°01' E 023°35'0 0.0
2018-May-26 02:00N 38°01' E 023°35'0 0.0
2018-May-26 01:29N 38°01' E 023°35'0 0.0
2018-May-26 00:52N 38°01' E 023°35'0 0.0
2018-May-26 00:30N 38°01' E 023°35'0 0.0
2018-May-26 00:01N 38°01' E 023°35'0 0.0
2018-May-25 23:28N 38°01' E 023°35'0 0.0
2018-May-25 22:58N 38°01' E 023°35'0 0.0
2018-May-25 22:28N 38°01' E 023°35'0 0.0
2018-May-25 20:13N 38°01' E 023°35'0 0.0
2018-May-25 19:59N 38°01' E 023°35'0 0.0
2018-May-25 16:44N 38°01' E 023°35'0 0.0
2018-May-25 16:24N 38°01' E 023°35'0 0.0
2018-May-25 15:33N 38°01' E 023°35'0 0.0
2018-May-25 13:17N 38°01' E 023°35'0 0.0
2018-May-25 12:57N 38°01' E 023°35'0 0.0
2018-May-25 12:26N 38°01' E 023°35'0 0.0
2018-May-25 11:52N 38°01' E 023°35'0 0.0
2018-May-25 11:27N 38°01' E 023°35'0 0.6
2018-May-25 11:00N 38°02' E 023°36'1 1.6
2018-May-25 10:30N 38°01' E 023°35'4 7.7
2018-May-25 10:00N 37°58' E 023°33'2 4.5
2018-May-25 09:30N 37°57' E 023°36'1 2.2
2018-May-25 09:00N 37°56' E 023°37'1 1.3
2018-May-25 08:30N 37°56' E 023°37'0 0.0
2018-May-25 08:00N 37°56' E 023°37'0 0.0
2018-May-25 07:31N 37°56' E 023°37'0 0.0
2018-May-25 07:00N 37°56' E 023°37'1 1.3
2018-May-25 06:30N 37°56' E 023°37'1 2.0
2018-May-25 06:00N 37°57' E 023°36'1 2.7
2018-May-25 05:30N 37°56' E 023°36'2 3.2
2018-May-25 05:00N 37°57' E 023°35'2 3.4
2018-May-25 04:30N 37°55' E 023°35'1 1.7
2018-May-25 04:00N 37°56' E 023°36'1 2.0
2018-May-25 03:30N 37°56' E 023°37'0 0.0
2018-May-25 03:00N 37°56' E 023°37'0 0.0
2018-May-25 02:30N 37°56' E 023°37'0 0.0
2018-May-24 16:30N 37°56' E 023°37'3 6.9
2018-May-24 16:00N 37°57' E 023°33'4 8.1
2018-May-24 15:30N 38°01' E 023°35'1 1.0
2018-May-24 15:00N 38°01' E 023°35'0 0.0
2018-May-24 14:30N 38°01' E 023°35'0 0.0
2018-May-24 14:00N 38°01' E 023°35'0 0.0
2018-May-24 13:30N 38°01' E 023°35'0 0.0
2018-May-24 08:38N 38°01' E 023°36'0 0.0
2018-May-24 08:21N 38°01' E 023°36'0 0.0
2018-May-24 07:45N 38°01' E 023°36'0 0.0
2018-May-23 20:26N 38°01' E 023°36'0 0.0
2018-May-23 19:52N 38°01' E 023°36'0 0.0
2018-May-23 19:26N 38°01' E 023°36'0 0.0
2018-May-23 18:59N 38°01' E 023°36'0 0.0
2018-May-23 18:30N 38°01' E 023°36'0 0.0
2018-May-23 18:00N 38°01' E 023°36'0 0.0
2018-May-23 17:29N 38°01' E 023°36'0 0.0
2018-May-23 17:00N 38°01' E 023°36'0 0.0
2018-May-23 16:29N 38°01' E 023°36'0 0.0
2018-May-23 16:00N 38°01' E 023°36'0 0.0
2018-May-23 15:25N 38°01' E 023°36'0 0.0
2018-May-23 09:36N 38°01' E 023°36'0 0.0
2018-May-23 09:28N 38°01' E 023°36'0 0.0
2018-May-23 08:59N 38°01' E 023°36'0 0.0
2018-May-23 08:29N 38°01' E 023°36'0 0.0
2018-May-23 07:58N 38°01' E 023°36'0 0.5
2018-May-23 07:31N 38°02' E 023°36'2 4.9
2018-May-23 07:01N 38°00' E 023°33'4 7.9
2018-May-23 06:30N 37°57' E 023°36'1 2.5
2018-May-23 06:00N 37°56' E 023°37'1 1.3
2018-May-23 05:30N 37°56' E 023°38'0 0.0
2018-May-23 05:00N 37°56' E 023°38'0 0.0
2018-May-23 04:30N 37°56' E 023°38'0 0.0
2018-May-23 04:00N 37°56' E 023°38'0 0.1
2018-May-23 03:30N 37°56' E 023°38'1 1.4
2018-May-23 03:00N 37°56' E 023°37'0 0.0
2018-May-23 02:29N 37°56' E 023°37'0 0.0
2018-May-22 11:34N 37°56' E 023°37'0 0.1
2018-May-22 11:30N 37°56' E 023°37'2 4.0
2018-May-22 11:00N 37°57' E 023°35'0 0.7
2018-May-22 10:30N 37°57' E 023°35'1 1.7
2018-May-22 10:00N 37°57' E 023°36'0 0.0
2018-May-22 09:30N 37°57' E 023°36'3 5.8
2018-May-22 09:00N 37°58' E 023°33'4 8.6
2018-May-22 08:30N 38°02' E 023°30'0 0.7
2018-May-22 08:00N 38°02' E 023°30'5 9.6
2018-May-22 07:30N 37°58' E 023°33'0 0.9
2018-May-22 07:00N 37°58' E 023°33'2 3.2
2018-May-22 06:30N 37°57' E 023°35'2 3.2
2018-May-22 06:00N 37°56' E 023°35'2 4.4
2018-May-22 05:30N 37°56' E 023°37'0 0.0
2018-May-22 05:00N 37°56' E 023°37'0 0.0
2018-May-22 04:30N 37°56' E 023°37'0 0.0
2018-May-22 04:00N 37°56' E 023°37'0 0.0
2018-May-22 03:30N 37°56' E 023°37'0 0.0
2018-May-22 03:00N 37°56' E 023°37'0 0.0
2018-May-22 02:30N 37°56' E 023°37'0 0.0
2018-May-21 18:13N 37°56' E 023°37'1 4.2
2018-May-21 18:00N 37°57' E 023°36'1 1.1
2018-May-21 17:30N 37°56' E 023°36'1 2.9
2018-May-21 17:00N 37°57' E 023°36'2 5.0
2018-May-21 16:30N 37°58' E 023°33'4 7.8
2018-May-21 16:00N 38°01' E 023°35'0 0.0
2018-May-21 15:30N 38°01' E 023°35'0 0.1
2018-May-21 15:00N 38°01' E 023°35'0 0.1
2018-May-21 14:30N 38°01' E 023°36'0 0.0
2018-May-21 13:57N 38°01' E 023°36'0 0.0
2018-May-21 13:30N 38°01' E 023°36'0 0.2
2018-May-21 13:00N 38°01' E 023°35'0 0.5
2018-May-21 12:30N 38°02' E 023°36'1 2.8
2018-May-21 12:00N 38°01' E 023°34'4 7.2
2018-May-21 11:30N 37°57' E 023°33'2 4.6
2018-May-21 11:00N 37°57' E 023°36'1 1.0
2018-May-21 10:30N 37°57' E 023°36'1 1.6
2018-May-21 10:00N 37°57' E 023°36'1 2.1
2018-May-21 09:31N 37°56' E 023°36'2 3.2
2018-May-21 09:00N 37°57' E 023°36'0 0.0
2018-May-21 08:30N 37°57' E 023°36'0 0.0
2018-May-21 08:00N 37°57' E 023°36'0 0.0
2018-May-21 07:30N 37°57' E 023°36'0 0.0
2018-May-21 07:00N 37°57' E 023°36'0 0.0
2018-May-21 06:30N 37°57' E 023°36'0 0.0
2018-May-21 06:00N 37°57' E 023°36'1 1.7
2018-May-21 05:30N 37°57' E 023°35'1 2.0
2018-May-21 05:00N 37°56' E 023°35'1 2.6
2018-May-21 04:31N 37°55' E 023°35'1 1.0
2018-May-21 04:00N 37°56' E 023°36'1 2.7
2018-May-21 03:30N 37°56' E 023°37'0 0.0
2018-May-21 02:59N 37°56' E 023°37'  
2018-May-17 14:55N 37°56' E 023°37'2 3.6
2018-May-17 14:30N 37°57' E 023°37'0 0.0
2018-May-17 14:00N 37°57' E 023°37'0 0.0
2018-May-17 13:30N 37°57' E 023°37'0 0.0
2018-May-17 13:00N 37°57' E 023°37'0 0.0
2018-May-17 12:30N 37°57' E 023°37'0 0.0
2018-May-17 12:00N 37°57' E 023°37'0 0.0
2018-May-17 11:30N 37°57' E 023°37'0 0.1
2018-May-17 11:00N 37°57' E 023°37'1 2.1
2018-May-17 10:30N 37°57' E 023°36'1 1.6
2018-May-17 10:00N 37°56' E 023°37'0 0.6
2018-May-17 09:30N 37°56' E 023°37'0 0.0
2018-May-17 09:00N 37°56' E 023°37'0 0.0
2018-May-17 08:30N 37°56' E 023°37'0 0.0
2018-May-17 08:00N 37°56' E 023°37'0 0.0
2018-May-17 07:30N 37°56' E 023°37'0 0.0
2018-May-17 07:00N 37°56' E 023°37'0 0.0
2018-May-17 06:30N 37°56' E 023°37'0 0.0
2018-May-17 06:00N 37°56' E 023°37'0 0.0
2018-May-17 05:30N 37°56' E 023°37'1 2.9
2018-May-17 05:00N 37°57' E 023°36'0 1.0
2018-May-17 04:30N 37°57' E 023°35'1 2.7
2018-May-17 04:00N 37°56' E 023°35'2 3.4
2018-May-17 03:30N 37°56' E 023°37'0 0.0
2018-May-17 03:00N 37°56' E 023°37'0 0.0
2018-May-17 02:30N 37°56' E 023°37'0 0.0
2018-May-17 02:00N 37°56' E 023°37'0 0.0
2018-May-17 01:30N 37°56' E 023°37'0 0.0
2018-May-17 01:00N 37°56' E 023°37'0 0.0
2018-May-17 00:30N 37°56' E 023°37'0 0.0
2018-May-17 00:00N 37°56' E 023°37'0 0.0
2018-May-16 23:30N 37°56' E 023°37'0 0.0
2018-May-16 23:00N 37°56' E 023°37'0 0.0
2018-May-16 22:30N 37°56' E 023°37'0 0.0
2018-May-16 22:00N 37°56' E 023°37'0 0.0
2018-May-16 21:30N 37°56' E 023°37'0 0.0
2018-May-16 21:00N 37°56' E 023°37'0 0.0
2018-May-16 20:30N 37°56' E 023°37'0 0.0
2018-May-16 20:00N 37°56' E 023°37'0 0.0
2018-May-16 19:30N 37°56' E 023°37'0 0.0
2018-May-16 19:00N 37°56' E 023°37'0 0.0
2018-May-16 18:30N 37°56' E 023°37'0 0.0
2018-May-16 18:00N 37°56' E 023°37'0 0.0
2018-May-16 17:30N 37°56' E 023°37'0 0.0
2018-May-16 17:00N 37°56' E 023°37'0 0.0
2018-May-16 16:30N 37°56' E 023°37'0 0.0
2018-May-16 16:00N 37°56' E 023°37'0 0.0
2018-May-16 15:30N 37°56' E 023°37'0 0.0
2018-May-16 15:00N 37°56' E 023°37'0 0.0
2018-May-16 14:30N 37°56' E 023°37'0 0.0
2018-May-16 14:00N 37°56' E 023°37'0 0.0
2018-May-16 13:30N 37°56' E 023°37'0 0.0
2018-May-16 13:00N 37°56' E 023°37'0 0.0
2018-May-16 12:30N 37°56' E 023°37'0 0.0
2018-May-16 12:00N 37°56' E 023°37'0 0.0
2018-May-16 11:30N 37°56' E 023°37'0 0.0
2018-May-16 11:00N 37°56' E 023°37'2 3.6
2018-May-16 10:31N 37°57' E 023°35'1 2.4
2018-May-16 10:00N 37°56' E 023°35'1 2.1
2018-May-16 09:31N 37°57' E 023°35'1 2.2
2018-May-16 09:00N 37°57' E 023°36'0 0.0
2018-May-16 08:30N 37°57' E 023°36'3 6.8
2018-May-16 08:00N 37°59' E 023°33'3 5.9
2018-May-16 07:30N 38°02' E 023°35'  
Track history (hours):
 
Tides and Currents Weather Stations Pressure Air Temp Water Temp Dewpoint Dewpoint Depression Visibility Wind Speed Wind Dir Waves Ship Positions

Vernicos Master

Last reported at 2018-May-26 07:29 UTC. Time now 2018-May-26 07:53 UTC.
Position N 38°01' E 023°35'.

Length 28 m; draft 3.8 m.

Type: Tug. MMSI: 240917000.

Date/timePositionNaut miles runAvg speedWind from/ knotsBaromVisibWave heightAir tempDewpointWater temp
2018-May-26 07:29N 38°01' E 023°35'0 0.0
2018-May-26 07:01N 38°01' E 023°35'0 0.0
2018-May-26 06:30N 38°01' E 023°35'0 0.0
2018-May-26 05:30N 38°01' E 023°35'0 0.0
2018-May-26 05:00N 38°01' E 023°35'0 0.0
2018-May-26 04:31N 38°01' E 023°35'0 0.0
2018-May-26 04:01N 38°01' E 023°35'0 0.0
2018-May-26 03:23N 38°01' E 023°35'0 0.0
2018-May-26 03:00N 38°01' E 023°35'0 0.0
2018-May-26 02:29N 38°01' E 023°35'0 0.0
2018-May-26 02:00N 38°01' E 023°35'0 0.0
2018-May-26 01:29N 38°01' E 023°35'0 0.0
2018-May-26 00:52N 38°01' E 023°35'0 0.0
2018-May-26 00:30N 38°01' E 023°35'0 0.0
2018-May-26 00:01N 38°01' E 023°35'0 0.0
2018-May-25 23:28N 38°01' E 023°35'0 0.0
2018-May-25 22:58N 38°01' E 023°35'0 0.0
2018-May-25 22:28N 38°01' E 023°35'0 0.0
2018-May-25 20:13N 38°01' E 023°35'0 0.0
2018-May-25 19:59N 38°01' E 023°35'0 0.0
2018-May-25 16:44N 38°01' E 023°35'0 0.0
2018-May-25 16:24N 38°01' E 023°35'0 0.0
2018-May-25 15:33N 38°01' E 023°35'0 0.0
2018-May-25 13:17N 38°01' E 023°35'0 0.0
2018-May-25 12:57N 38°01' E 023°35'0 0.0
2018-May-25 12:26N 38°01' E 023°35'0 0.0
2018-May-25 11:52N 38°01' E 023°35'0 0.0
2018-May-25 11:27N 38°01' E 023°35'0 0.6
2018-May-25 11:00N 38°02' E 023°36'1 1.6
2018-May-25 10:30N 38°01' E 023°35'4 7.7
2018-May-25 10:00N 37°58' E 023°33'2 4.5
2018-May-25 09:30N 37°57' E 023°36'1 2.2
2018-May-25 09:00N 37°56' E 023°37'1 1.3
2018-May-25 08:30N 37°56' E 023°37'0 0.0
2018-May-25 08:00N 37°56' E 023°37'0 0.0
2018-May-25 07:31N 37°56' E 023°37'0 0.0
2018-May-25 07:00N 37°56' E 023°37'1 1.3
2018-May-25 06:30N 37°56' E 023°37'1 2.0
2018-May-25 06:00N 37°57' E 023°36'1 2.7
2018-May-25 05:30N 37°56' E 023°36'2 3.2
2018-May-25 05:00N 37°57' E 023°35'2 3.4
2018-May-25 04:30N 37°55' E 023°35'1 1.7
2018-May-25 04:00N 37°56' E 023°36'1 2.0
2018-May-25 03:30N 37°56' E 023°37'0 0.0
2018-May-25 03:00N 37°56' E 023°37'0 0.0
2018-May-25 02:30N 37°56' E 023°37'0 0.0
2018-May-24 16:30N 37°56' E 023°37'3 6.9
2018-May-24 16:00N 37°57' E 023°33'4 8.1
2018-May-24 15:30N 38°01' E 023°35'1 1.0
2018-May-24 15:00N 38°01' E 023°35'0 0.0
2018-May-24 14:30N 38°01' E 023°35'0 0.0
2018-May-24 14:00N 38°01' E 023°35'0 0.0
2018-May-24 13:30N 38°01' E 023°35'0 0.0
2018-May-24 08:38N 38°01' E 023°36'0 0.0
2018-May-24 08:21N 38°01' E 023°36'0 0.0
2018-May-24 07:45N 38°01' E 023°36'0 0.0
2018-May-23 20:26N 38°01' E 023°36'0 0.0
2018-May-23 19:52N 38°01' E 023°36'0 0.0
2018-May-23 19:26N 38°01' E 023°36'0 0.0
2018-May-23 18:59N 38°01' E 023°36'0 0.0
2018-May-23 18:30N 38°01' E 023°36'0 0.0
2018-May-23 18:00N 38°01' E 023°36'0 0.0
2018-May-23 17:29N 38°01' E 023°36'0 0.0
2018-May-23 17:00N 38°01' E 023°36'0 0.0
2018-May-23 16:29N 38°01' E 023°36'0 0.0
2018-May-23 16:00N 38°01' E 023°36'0 0.0
2018-May-23 15:25N 38°01' E 023°36'0 0.0
2018-May-23 09:36N 38°01' E 023°36'0 0.0
2018-May-23 09:28N 38°01' E 023°36'0 0.0
2018-May-23 08:59N 38°01' E 023°36'0 0.0
2018-May-23 08:29N 38°01' E 023°36'0 0.0
2018-May-23 07:58N 38°01' E 023°36'0 0.5
2018-May-23 07:31N 38°02' E 023°36'2 4.9
2018-May-23 07:01N 38°00' E 023°33'4 7.9
2018-May-23 06:30N 37°57' E 023°36'1 2.5
2018-May-23 06:00N 37°56' E 023°37'1 1.3
2018-May-23 05:30N 37°56' E 023°38'0 0.0
2018-May-23 05:00N 37°56' E 023°38'0 0.0
2018-May-23 04:30N 37°56' E 023°38'0 0.0
2018-May-23 04:00N 37°56' E 023°38'0 0.1
2018-May-23 03:30N 37°56' E 023°38'1 1.4
2018-May-23 03:00N 37°56' E 023°37'0 0.0
2018-May-23 02:29N 37°56' E 023°37'0 0.0
2018-May-22 11:34N 37°56' E 023°37'0 0.1
2018-May-22 11:30N 37°56' E 023°37'2 4.0
2018-May-22 11:00N 37°57' E 023°35'0 0.7
2018-May-22 10:30N 37°57' E 023°35'1 1.7
2018-May-22 10:00N 37°57' E 023°36'0 0.0
2018-May-22 09:30N 37°57' E 023°36'3 5.8
2018-May-22 09:00N 37°58' E 023°33'4 8.6
2018-May-22 08:30N 38°02' E 023°30'0 0.7
2018-May-22 08:00N 38°02' E 023°30'5 9.6
2018-May-22 07:30N 37°58' E 023°33'0 0.9
2018-May-22 07:00N 37°58' E 023°33'2 3.2
2018-May-22 06:30N 37°57' E 023°35'2 3.2
2018-May-22 06:00N 37°56' E 023°35'2 4.4
2018-May-22 05:30N 37°56' E 023°37'0 0.0
2018-May-22 05:00N 37°56' E 023°37'0 0.0
2018-May-22 04:30N 37°56' E 023°37'0 0.0
2018-May-22 04:00N 37°56' E 023°37'0 0.0
2018-May-22 03:30N 37°56' E 023°37'0 0.0
2018-May-22 03:00N 37°56' E 023°37'0 0.0
2018-May-22 02:30N 37°56' E 023°37'0 0.0
2018-May-21 18:13N 37°56' E 023°37'1 4.2
2018-May-21 18:00N 37°57' E 023°36'1 1.1
2018-May-21 17:30N 37°56' E 023°36'1 2.9
2018-May-21 17:00N 37°57' E 023°36'2 5.0
2018-May-21 16:30N 37°58' E 023°33'4 7.8
2018-May-21 16:00N 38°01' E 023°35'0 0.0
2018-May-21 15:30N 38°01' E 023°35'0 0.1
2018-May-21 15:00N 38°01' E 023°35'0 0.1
2018-May-21 14:30N 38°01' E 023°36'0 0.0
2018-May-21 13:57N 38°01' E 023°36'0 0.0
2018-May-21 13:30N 38°01' E 023°36'0 0.2
2018-May-21 13:00N 38°01' E 023°35'0 0.5
2018-May-21 12:30N 38°02' E 023°36'1 2.8
2018-May-21 12:00N 38°01' E 023°34'4 7.2
2018-May-21 11:30N 37°57' E 023°33'2 4.6
2018-May-21 11:00N 37°57' E 023°36'1 1.0
2018-May-21 10:30N 37°57' E 023°36'1 1.6
2018-May-21 10:00N 37°57' E 023°36'1 2.1
2018-May-21 09:31N 37°56' E 023°36'2 3.2
2018-May-21 09:00N 37°57' E 023°36'0 0.0
2018-May-21 08:30N 37°57' E 023°36'0 0.0
2018-May-21 08:00N 37°57' E 023°36'0 0.0
2018-May-21 07:30N 37°57' E 023°36'0 0.0
2018-May-21 07:00N 37°57' E 023°36'0 0.0
2018-May-21 06:30N 37°57' E 023°36'0 0.0
2018-May-21 06:00N 37°57' E 023°36'1 1.7
2018-May-21 05:30N 37°57' E 023°35'1 2.0
2018-May-21 05:00N 37°56' E 023°35'1 2.6
2018-May-21 04:31N 37°55' E 023°35'1 1.0
2018-May-21 04:00N 37°56' E 023°36'1 2.7
2018-May-21 03:30N 37°56' E 023°37'0 0.0
2018-May-21 02:59N 37°56' E 023°37'  
2018-May-17 14:55N 37°56' E 023°37'2 3.6
2018-May-17 14:30N 37°57' E 023°37'0 0.0
2018-May-17 14:00N 37°57' E 023°37'0 0.0
2018-May-17 13:30N 37°57' E 023°37'0 0.0
2018-May-17 13:00N 37°57' E 023°37'0 0.0
2018-May-17 12:30N 37°57' E 023°37'0 0.0
2018-May-17 12:00N 37°57' E 023°37'0 0.0
2018-May-17 11:30N 37°57' E 023°37'0 0.1
2018-May-17 11:00N 37°57' E 023°37'1 2.1
2018-May-17 10:30N 37°57' E 023°36'1 1.6
2018-May-17 10:00N 37°56' E 023°37'0 0.6
2018-May-17 09:30N 37°56' E 023°37'0 0.0
2018-May-17 09:00N 37°56' E 023°37'0 0.0
2018-May-17 08:30N 37°56' E 023°37'0 0.0
2018-May-17 08:00N 37°56' E 023°37'0 0.0
2018-May-17 07:30N 37°56' E 023°37'0 0.0
2018-May-17 07:00N 37°56' E 023°37'0 0.0
2018-May-17 06:30N 37°56' E 023°37'0 0.0
2018-May-17 06:00N 37°56' E 023°37'0 0.0
2018-May-17 05:30N 37°56' E 023°37'1 2.9
2018-May-17 05:00N 37°57' E 023°36'0 1.0
2018-May-17 04:30N 37°57' E 023°35'1 2.7
2018-May-17 04:00N 37°56' E 023°35'2 3.4
2018-May-17 03:30N 37°56' E 023°37'0 0.0
2018-May-17 03:00N 37°56' E 023°37'0 0.0
2018-May-17 02:30N 37°56' E 023°37'0 0.0
2018-May-17 02:00N 37°56' E 023°37'0 0.0
2018-May-17 01:30N 37°56' E 023°37'0 0.0
2018-May-17 01:00N 37°56' E 023°37'0 0.0
2018-May-17 00:30N 37°56' E 023°37'0 0.0
2018-May-17 00:00N 37°56' E 023°37'0 0.0
2018-May-16 23:30N 37°56' E 023°37'0 0.0
2018-May-16 23:00N 37°56' E 023°37'0 0.0
2018-May-16 22:30N 37°56' E 023°37'0 0.0
2018-May-16 22:00N 37°56' E 023°37'0 0.0
2018-May-16 21:30N 37°56' E 023°37'0 0.0
2018-May-16 21:00N 37°56' E 023°37'0 0.0
2018-May-16 20:30N 37°56' E 023°37'0 0.0
2018-May-16 20:00N 37°56' E 023°37'0 0.0
2018-May-16 19:30N 37°56' E 023°37'0 0.0
2018-May-16 19:00N 37°56' E 023°37'0 0.0
2018-May-16 18:30N 37°56' E 023°37'0 0.0
2018-May-16 18:00N 37°56' E 023°37'0 0.0
2018-May-16 17:30N 37°56' E 023°37'0 0.0
2018-May-16 17:00N 37°56' E 023°37'0 0.0
2018-May-16 16:30N 37°56' E 023°37'0 0.0
2018-May-16 16:00N 37°56' E 023°37'0 0.0
2018-May-16 15:30N 37°56' E 023°37'0 0.0
2018-May-16 15:00N 37°56' E 023°37'0 0.0
2018-May-16 14:30N 37°56' E 023°37'0 0.0
2018-May-16 14:00N 37°56' E 023°37'0 0.0
2018-May-16 13:30N 37°56' E 023°37'0 0.0
2018-May-16 13:00N 37°56' E 023°37'0 0.0
2018-May-16 12:30N 37°56' E 023°37'0 0.0
2018-May-16 12:00N 37°56' E 023°37'0 0.0
2018-May-16 11:30N 37°56' E 023°37'0 0.0
2018-May-16 11:00N 37°56' E 023°37'2 3.6
2018-May-16 10:31N 37°57' E 023°35'1 2.4
2018-May-16 10:00N 37°56' E 023°35'1 2.1
2018-May-16 09:31N 37°57' E 023°35'1 2.2
2018-May-16 09:00N 37°57' E 023°36'0 0.0
2018-May-16 08:30N 37°57' E 023°36'3 6.8
2018-May-16 08:00N 37°59' E 023°33'3 5.9
2018-May-16 07:30N 38°02' E 023°35'  

Dump ship's entire track history